createdAt,value
2023-03-10T00:00:41.585Z,0.80
2023-03-10T00:03:08.296Z,0.63
2023-03-10T00:05:36.414Z,0.73
2023-03-10T00:08:03.168Z,0.60
2023-03-10T00:10:29.862Z,0.70
2023-03-10T00:12:59.351Z,0.60
2023-03-10T00:15:26.265Z,0.73
2023-03-10T00:17:57.980Z,0.75
2023-03-10T00:20:27.769Z,0.60
2023-03-10T00:22:59.220Z,0.95
2023-03-10T00:25:25.971Z,0.73
2023-03-10T00:27:54.867Z,0.80
2023-03-10T00:30:21.689Z,0.60
2023-03-10T00:32:50.260Z,0.65
2023-03-10T00:35:17.112Z,0.50
2023-03-10T00:37:46.304Z,0.77
2023-03-10T00:40:15.735Z,0.68
2023-03-10T00:42:42.728Z,0.60
2023-03-10T00:45:10.152Z,0.77
2023-03-10T00:47:36.879Z,0.60
2023-03-10T00:50:03.749Z,0.40
2023-03-10T00:52:33.795Z,0.68
2023-03-10T00:55:02.725Z,0.60
2023-03-10T00:57:29.427Z,0.75
2023-03-10T00:59:56.070Z,0.60
2023-03-10T01:02:22.738Z,0.70
2023-03-10T01:04:49.628Z,0.50
2023-03-10T01:07:18.548Z,0.50
2023-03-10T01:09:45.257Z,0.85
2023-03-10T01:12:16.962Z,0.60
2023-03-10T01:14:45.876Z,0.57
2023-03-10T01:17:12.496Z,0.50
2023-03-10T01:19:41.636Z,0.70
2023-03-10T01:22:10.432Z,0.60
2023-03-10T01:24:37.087Z,0.63
2023-03-10T01:27:08.444Z,0.55
2023-03-10T01:29:35.103Z,0.60
2023-03-10T01:32:01.779Z,0.50
2023-03-10T01:34:28.485Z,0.70
2023-03-10T01:36:55.138Z,0.75
2023-03-10T01:39:21.759Z,0.52
2023-03-10T01:41:48.487Z,0.30
2023-03-10T01:44:18.545Z,0.50
2023-03-10T01:46:49.951Z,0.55
2023-03-10T01:49:36.194Z,0.68
2023-03-10T01:52:14.236Z,1.30
2023-03-10T01:54:56.624Z,0.60
2023-03-10T01:57:29.855Z,0.40
2023-03-10T02:00:00.043Z,0.60
2023-03-10T02:02:27.621Z,0.55
2023-03-10T02:04:55.322Z,0.45
2023-03-10T02:07:27.475Z,0.50
2023-03-10T02:09:55.969Z,0.60
2023-03-10T02:12:25.258Z,0.95
2023-03-10T02:14:53.815Z,0.88
2023-03-10T02:17:23.169Z,0.73
2023-03-10T02:20:21.220Z,0.60
2023-03-10T02:22:48.827Z,0.70
2023-03-10T02:25:33.537Z,0.93
2023-03-10T02:28:00.253Z,0.85
2023-03-10T02:30:34.161Z,0.60
2023-03-10T02:35:34.623Z,0.60
2023-03-10T02:38:03.530Z,0.70
2023-03-10T02:40:48.324Z,0.57
2023-03-10T02:43:33.946Z,1.15
2023-03-10T02:46:03.332Z,0.73
2023-03-10T02:48:34.966Z,0.85
2023-03-10T02:51:05.008Z,0.90
2023-03-10T02:53:31.788Z,0.73
2023-03-10T02:55:59.857Z,0.90
2023-03-10T02:58:28.374Z,0.73
2023-03-10T03:00:55.589Z,1.08
2023-03-10T03:03:23.434Z,0.80
2023-03-10T03:05:50.535Z,1.08
2023-03-10T03:08:20.986Z,0.90
2023-03-10T03:10:48.051Z,1.00
2023-03-10T03:13:15.318Z,0.77
2023-03-10T03:15:42.540Z,0.90
2023-03-10T03:18:09.834Z,1.10
2023-03-10T03:20:41.079Z,1.20
2023-03-10T03:23:08.274Z,1.00
2023-03-10T03:25:37.997Z,1.30
2023-03-10T03:28:05.810Z,1.27
2023-03-10T03:30:35.145Z,1.30
2023-03-10T03:33:03.619Z,1.58
2023-03-10T03:35:32.916Z,1.10
2023-03-10T03:38:00.862Z,1.25
2023-03-10T03:40:33.560Z,1.33
2023-03-10T03:43:00.768Z,1.50
2023-03-10T03:45:29.317Z,1.50
2023-03-10T03:47:56.253Z,1.77
2023-03-10T03:50:26.447Z,1.05
2023-03-10T03:52:53.083Z,1.27
2023-03-10T03:55:19.999Z,1.30
2023-03-10T03:57:47.671Z,1.40
2023-03-10T04:00:20.398Z,1.27
2023-03-10T04:02:47.427Z,1.42
2023-03-10T04:05:14.654Z,1.48
2023-03-10T04:07:44.570Z,1.00
2023-03-10T04:10:19.508Z,1.48
2023-03-10T04:12:46.713Z,1.55
2023-03-10T04:15:13.496Z,1.20
2023-03-10T04:17:40.656Z,1.40
2023-03-10T04:20:09.041Z,1.45
2023-03-10T04:22:36.628Z,1.15
2023-03-10T04:25:04.618Z,1.30
2023-03-10T04:27:31.568Z,1.20
2023-03-10T04:29:58.478Z,1.30
2023-03-10T04:32:28.039Z,1.08
2023-03-10T04:34:54.766Z,1.10
2023-03-10T04:37:24.068Z,1.20
2023-03-10T04:39:50.743Z,1.23
2023-03-10T04:42:17.403Z,0.98
2023-03-10T04:44:44.133Z,1.52
2023-03-10T04:47:13.306Z,0.98
2023-03-10T04:49:39.970Z,1.00
2023-03-10T04:52:06.916Z,1.10
2023-03-10T04:54:33.641Z,1.00
2023-03-10T04:57:00.405Z,0.93
2023-03-10T04:59:27.230Z,1.48
2023-03-10T05:01:53.917Z,1.20
2023-03-10T05:04:20.681Z,0.80
2023-03-10T05:06:50.929Z,0.95
2023-03-10T05:09:17.793Z,0.95
2023-03-10T05:11:44.624Z,1.30
2023-03-10T05:14:12.776Z,1.15
2023-03-10T05:16:39.521Z,1.20
2023-03-10T05:19:06.265Z,1.23
2023-03-10T05:21:33.553Z,1.15
2023-03-10T05:24:00.588Z,1.10
2023-03-10T05:26:27.832Z,1.00
2023-03-10T05:28:54.482Z,1.08
2023-03-10T05:31:25.950Z,1.15
2023-03-10T05:33:54.020Z,0.90
2023-03-10T05:36:23.023Z,1.30
2023-03-10T05:38:50.381Z,0.90
2023-03-10T05:41:19.264Z,0.93
2023-03-10T05:43:48.403Z,1.10
2023-03-10T05:46:15.097Z,1.17
2023-03-10T05:48:41.864Z,1.00
2023-03-10T05:51:11.698Z,1.23
2023-03-10T05:53:39.147Z,1.20
2023-03-10T05:56:17.938Z,0.80
2023-03-10T05:58:46.150Z,0.98
2023-03-10T06:01:13.695Z,1.15
2023-03-10T06:03:45.186Z,1.08
2023-03-10T06:06:14.321Z,1.17
2023-03-10T06:08:41.901Z,1.05
2023-03-10T06:11:11.352Z,1.25
2023-03-10T06:13:38.087Z,1.00
2023-03-10T06:16:08.978Z,1.55
2023-03-10T06:18:35.705Z,1.10
2023-03-10T06:21:11.516Z,1.20
2023-03-10T06:23:38.270Z,1.25
2023-03-10T06:26:10.198Z,1.42
2023-03-10T06:28:38.817Z,1.42
2023-03-10T06:31:08.238Z,1.42
2023-03-10T06:33:35.475Z,1.30
2023-03-10T06:36:02.581Z,1.08
2023-03-10T06:38:30.439Z,1.50
2023-03-10T06:40:57.955Z,1.38
2023-03-10T06:43:27.411Z,1.20
2023-03-10T06:45:56.699Z,1.45
2023-03-10T06:48:23.508Z,1.27
2023-03-10T06:50:50.422Z,1.50
2023-03-10T06:53:21.640Z,1.98
2023-03-10T06:56:06.468Z,1.40
2023-03-10T06:58:35.221Z,1.58
2023-03-10T07:01:02.209Z,1.63
2023-03-10T07:03:29.380Z,2.05
2023-03-10T07:05:59.678Z,1.50
2023-03-10T07:08:27.847Z,1.98
2023-03-10T07:10:54.849Z,1.60
2023-03-10T07:13:22.168Z,1.45
2023-03-10T07:15:49.358Z,1.42
2023-03-10T07:18:16.538Z,1.15
2023-03-10T07:20:47.666Z,1.17
2023-03-10T07:23:15.084Z,1.70
2023-03-10T07:25:41.824Z,0.90
2023-03-10T07:28:08.868Z,1.10
2023-03-10T07:30:36.636Z,1.20
2023-03-10T07:33:06.843Z,0.90
2023-03-10T07:35:36.619Z,0.50
2023-03-10T07:38:07.242Z,0.80
2023-03-10T07:40:34.055Z,1.65
2023-03-10T07:43:01.107Z,1.00
2023-03-10T07:45:28.379Z,0.98
2023-03-10T07:47:55.148Z,0.82
2023-03-10T07:50:22.704Z,0.88
2023-03-10T07:52:49.472Z,0.77
2023-03-10T07:55:16.442Z,0.85
2023-03-10T07:57:43.194Z,0.90
2023-03-10T08:00:11.297Z,1.10
2023-03-10T08:02:40.911Z,0.93
2023-03-10T08:05:08.881Z,1.13
2023-03-10T08:07:35.829Z,0.80
2023-03-10T08:10:02.988Z,0.77
2023-03-10T08:12:29.786Z,0.70
2023-03-10T08:14:56.527Z,0.60
2023-03-10T08:17:25.376Z,0.90
2023-03-10T08:19:52.056Z,0.82
2023-03-10T08:22:20.265Z,0.65
2023-03-10T08:24:48.458Z,0.77
2023-03-10T08:27:15.209Z,0.73
2023-03-10T08:29:41.907Z,1.10
2023-03-10T08:32:08.779Z,1.63
2023-03-10T08:34:36.741Z,0.52
2023-03-10T08:37:04.118Z,0.75
2023-03-10T08:39:30.869Z,0.98
2023-03-10T08:41:57.562Z,0.80
2023-03-10T08:44:24.333Z,0.95
2023-03-10T08:46:51.561Z,0.93
2023-03-10T08:49:21.219Z,0.70
2023-03-10T08:51:48.732Z,0.80
2023-03-10T08:54:23.911Z,0.90
2023-03-10T08:56:53.107Z,0.93
2023-03-10T08:59:20.297Z,0.75
2023-03-10T09:01:47.425Z,1.05
2023-03-10T09:04:14.131Z,1.00
2023-03-10T09:06:42.952Z,1.00
2023-03-10T09:09:10.539Z,1.30
2023-03-10T09:11:39.785Z,1.00
2023-03-10T09:14:16.957Z,1.50
2023-03-10T09:16:46.168Z,1.15
2023-03-10T09:19:13.012Z,1.10
2023-03-10T09:21:40.760Z,0.90
2023-03-10T09:24:07.895Z,0.90
2023-03-10T09:26:37.020Z,1.10
2023-03-10T09:29:04.450Z,1.05
2023-03-10T09:31:34.477Z,1.10
2023-03-10T09:34:06.631Z,1.25
2023-03-10T09:36:33.653Z,1.20
2023-03-10T09:39:01.219Z,1.30
2023-03-10T09:42:25.461Z,1.48
2023-03-10T09:45:20.144Z,1.23
2023-03-10T09:48:12.807Z,1.20
2023-03-10T09:50:46.306Z,1.55
2023-03-10T09:53:31.714Z,1.45
2023-03-10T09:55:58.399Z,1.80
2023-03-10T09:58:35.658Z,1.20
2023-03-10T10:01:06.297Z,1.25
2023-03-10T10:03:53.013Z,1.10
2023-03-10T10:06:28.636Z,1.23
2023-03-10T10:09:13.849Z,1.20
2023-03-10T10:11:40.975Z,1.17
2023-03-10T10:14:26.212Z,1.10
2023-03-10T10:17:14.012Z,1.40
2023-03-10T10:19:41.151Z,1.02
2023-03-10T10:22:21.429Z,1.13
2023-03-10T10:25:09.605Z,1.20
2023-03-10T10:27:45.228Z,0.98
2023-03-10T10:30:32.423Z,0.98
2023-03-10T10:33:11.048Z,0.82
2023-03-10T10:35:59.549Z,0.93
2023-03-10T10:38:30.150Z,0.77
2023-03-10T10:41:16.117Z,1.33
2023-03-10T10:43:45.469Z,0.90
2023-03-10T10:46:14.957Z,0.77
2023-03-10T10:48:47.635Z,1.05
2023-03-10T10:51:27.183Z,0.52
2023-03-10T10:53:54.832Z,0.75
2023-03-10T10:56:24.063Z,0.50
2023-03-10T10:59:21.408Z,0.60
2023-03-10T11:01:49.461Z,0.70
2023-03-10T11:04:18.799Z,0.80
2023-03-10T11:06:45.591Z,0.60
2023-03-10T11:09:14.097Z,0.60
2023-03-10T11:12:17.183Z,0.57
2023-03-10T11:15:18.413Z,0.52
2023-03-10T11:18:00.755Z,0.47
2023-03-10T11:20:37.898Z,0.57
2023-03-10T11:23:25.892Z,0.75
2023-03-10T11:26:00.140Z,0.38
2023-03-10T11:28:32.352Z,0.50
2023-03-10T11:31:06.150Z,0.60
2023-03-10T11:36:55.424Z,0.65
2023-03-10T11:39:50.454Z,0.50
2023-03-10T11:43:11.366Z,0.50
2023-03-10T11:45:52.733Z,0.40
2023-03-10T11:48:25.266Z,0.45
2023-03-10T11:50:54.780Z,0.40
2023-03-10T11:53:30.212Z,0.60
2023-03-10T11:55:59.406Z,0.30
2023-03-10T11:58:47.585Z,1.08
2023-03-10T12:01:21.348Z,0.50
2023-03-10T12:06:35.773Z,0.40
2023-03-10T12:09:03.293Z,0.30
2023-03-10T12:11:30.716Z,0.30
2023-03-10T12:14:01.861Z,0.40
2023-03-10T12:16:36.595Z,0.30
2023-03-10T12:19:08.540Z,0.40
2023-03-10T12:21:36.020Z,0.82
2023-03-10T12:24:04.501Z,0.30
2023-03-10T12:26:44.804Z,0.30
2023-03-10T12:29:20.554Z,0.30
2023-03-10T12:31:49.666Z,0.30
2023-03-10T12:34:27.909Z,0.30
2023-03-10T12:37:04.112Z,0.10
2023-03-10T12:39:32.603Z,0.20
2023-03-10T12:42:19.005Z,0.45
2023-03-10T12:45:13.281Z,0.20
2023-03-10T12:47:55.283Z,1.48
2023-03-10T12:50:31.365Z,0.17
2023-03-10T12:53:05.507Z,0.20
2023-03-10T12:55:34.559Z,0.17
2023-03-10T12:58:07.738Z,0.20
2023-03-10T13:00:52.093Z,0.28
2023-03-10T13:03:32.276Z,0.30
2023-03-10T13:06:07.250Z,0.32
2023-03-10T13:08:42.219Z,0.20
2023-03-10T13:11:37.546Z,0.20
2023-03-10T13:14:11.955Z,0.20
2023-03-10T13:16:38.812Z,0.20
2023-03-10T13:19:05.959Z,0.10
2023-03-10T13:21:36.317Z,0.17
2023-03-10T13:24:18.941Z,0.20
2023-03-10T13:26:50.306Z,0.20
2023-03-10T13:29:19.043Z,0.20
2023-03-10T13:31:53.795Z,0.20
2023-03-10T13:34:21.907Z,0.17
2023-03-10T13:36:49.052Z,0.20
2023-03-10T13:39:27.280Z,0.20
2023-03-10T13:41:57.915Z,0.30
2023-03-10T13:44:31.979Z,0.20
2023-03-10T13:47:00.819Z,0.20
2023-03-10T13:49:32.961Z,0.40
2023-03-10T13:52:06.442Z,0.20
2023-03-10T13:54:37.066Z,0.30
2023-03-10T13:57:32.781Z,0.30
2023-03-10T14:00:00.582Z,0.20
2023-03-10T14:02:35.333Z,0.20
2023-03-10T14:05:02.474Z,0.50
2023-03-10T14:07:32.811Z,0.30
2023-03-10T14:10:05.691Z,0.28
2023-03-10T14:12:47.772Z,0.30
2023-03-10T14:15:20.392Z,0.20
2023-03-10T14:18:08.633Z,0.20
2023-03-10T14:20:48.010Z,0.13
2023-03-10T14:23:26.429Z,0.20
2023-03-10T14:25:57.136Z,0.20
2023-03-10T14:28:28.096Z,0.20
2023-03-10T14:30:55.438Z,0.40
2023-03-10T14:33:22.754Z,0.30
2023-03-10T14:35:49.879Z,0.30
2023-03-10T14:38:17.846Z,0.25
2023-03-10T14:40:51.307Z,0.40
2023-03-10T14:43:27.490Z,0.30
2023-03-10T14:45:56.794Z,0.30
2023-03-10T14:48:28.415Z,0.30
2023-03-10T14:50:56.962Z,0.20
2023-03-10T14:53:25.810Z,0.50
2023-03-10T14:55:55.837Z,0.40
2023-03-10T14:58:34.454Z,0.45
2023-03-10T15:01:01.448Z,0.60
2023-03-10T15:03:28.250Z,0.70
2023-03-10T15:05:57.126Z,0.52
2023-03-10T15:08:23.843Z,0.65
2023-03-10T15:10:51.912Z,0.50
2023-03-10T15:13:23.828Z,0.95
2023-03-10T15:15:51.587Z,0.70
2023-03-10T15:18:23.130Z,0.70
2023-03-10T15:20:55.148Z,0.70
2023-03-10T15:23:22.385Z,0.80
2023-03-10T15:25:51.952Z,1.00
2023-03-10T15:28:18.640Z,1.10
2023-03-10T15:30:45.506Z,0.70
2023-03-10T15:33:12.177Z,0.90
2023-03-10T15:35:44.229Z,1.83
2023-03-10T15:38:14.077Z,1.40
2023-03-10T15:40:41.267Z,0.93
2023-03-10T15:43:10.563Z,1.38
2023-03-10T15:45:41.041Z,1.08
2023-03-10T15:48:10.586Z,1.30
2023-03-10T15:50:40.869Z,1.33
2023-03-10T15:53:07.857Z,1.55
2023-03-10T15:55:38.233Z,1.70
2023-03-10T15:58:04.920Z,1.63
2023-03-10T16:00:31.583Z,1.80
2023-03-10T16:02:58.250Z,1.10
2023-03-10T16:05:24.950Z,1.45
2023-03-10T16:07:51.715Z,1.60
2023-03-10T16:10:21.311Z,1.35
2023-03-10T16:12:50.223Z,1.17
2023-03-10T16:15:18.347Z,1.58
2023-03-10T16:17:45.570Z,1.42
2023-03-10T16:20:16.941Z,1.42
2023-03-10T16:22:43.674Z,1.52
2023-03-10T16:25:15.778Z,1.25
2023-03-10T16:27:46.617Z,1.30
2023-03-10T16:30:15.090Z,1.63
2023-03-10T16:32:48.815Z,1.50
2023-03-10T16:35:17.267Z,1.25
2023-03-10T16:37:44.050Z,1.20
2023-03-10T16:40:11.678Z,1.38
2023-03-10T16:42:38.983Z,1.10
2023-03-10T16:45:06.630Z,1.30
2023-03-10T16:47:33.657Z,1.05
2023-03-10T16:50:00.463Z,1.25
2023-03-10T16:52:27.155Z,1.27
2023-03-10T16:54:58.508Z,1.48
2023-03-10T16:57:25.205Z,1.67
2023-03-10T16:59:51.964Z,0.90
2023-03-10T17:02:18.573Z,1.63
2023-03-10T17:04:45.846Z,1.45
2023-03-10T17:07:12.630Z,1.08
2023-03-10T17:09:39.329Z,0.90
2023-03-10T17:12:06.960Z,1.08
2023-03-10T17:14:33.822Z,0.93
2023-03-10T17:17:03.383Z,1.10
2023-03-10T17:19:31.157Z,1.00
2023-03-10T17:22:01.206Z,1.20
2023-03-10T17:24:28.217Z,1.20
2023-03-10T17:26:55.096Z,0.68
2023-03-10T17:29:21.915Z,1.23
2023-03-10T17:31:50.519Z,0.80
2023-03-10T17:34:19.054Z,1.13
2023-03-10T17:36:50.241Z,0.90
2023-03-10T17:39:20.001Z,0.82
2023-03-10T17:41:47.688Z,1.00
2023-03-10T17:44:14.897Z,1.33
2023-03-10T17:46:42.134Z,0.73
2023-03-10T17:49:12.243Z,1.00
2023-03-10T17:51:43.437Z,0.90
2023-03-10T17:54:15.741Z,1.13
2023-03-10T17:56:42.701Z,0.93
2023-03-10T17:59:11.080Z,0.90
2023-03-10T18:01:37.708Z,0.60
2023-03-10T18:04:07.153Z,1.02
2023-03-10T18:06:39.193Z,1.00
2023-03-10T18:09:10.992Z,0.90
2023-03-10T18:11:37.715Z,1.02
2023-03-10T18:14:05.280Z,0.70
2023-03-10T18:16:41.445Z,0.65
2023-03-10T18:19:11.158Z,1.08
2023-03-10T18:21:42.796Z,0.90
2023-03-10T18:24:12.211Z,0.80
2023-03-10T18:26:43.240Z,1.10
2023-03-10T18:29:11.604Z,0.95
2023-03-10T18:31:41.126Z,0.82
2023-03-10T18:34:10.014Z,0.60
2023-03-10T18:36:39.308Z,0.60
2023-03-10T18:39:07.752Z,0.40
2023-03-10T18:41:35.312Z,0.70
2023-03-10T18:44:04.271Z,0.50
2023-03-10T18:46:31.431Z,0.90
2023-03-10T18:48:58.243Z,0.70
2023-03-10T18:51:28.831Z,0.80
2023-03-10T18:53:55.586Z,0.80
2023-03-10T18:56:25.697Z,0.65
2023-03-10T18:58:55.278Z,0.93
2023-03-10T19:01:25.567Z,0.85
2023-03-10T19:03:52.555Z,0.60
2023-03-10T19:06:19.334Z,0.73
2023-03-10T19:08:46.066Z,0.57
2023-03-10T19:11:13.027Z,0.70
2023-03-10T19:13:43.507Z,0.65
2023-03-10T19:16:11.046Z,0.50
2023-03-10T19:18:37.833Z,0.60
2023-03-10T19:21:09.294Z,0.70
2023-03-10T19:23:38.586Z,0.70
2023-03-10T19:26:05.280Z,0.90
2023-03-10T19:28:32.006Z,0.57
2023-03-10T19:30:58.963Z,0.70
2023-03-10T19:33:25.892Z,0.70
2023-03-10T19:36:03.372Z,0.77
2023-03-10T19:38:30.230Z,0.85
2023-03-10T19:40:57.029Z,0.95
2023-03-10T19:43:23.708Z,0.80
2023-03-10T19:45:50.414Z,0.80
2023-03-10T19:48:19.759Z,0.80
2023-03-10T19:50:54.807Z,0.70
2023-03-10T19:53:22.660Z,0.88
2023-03-10T19:55:58.391Z,0.70
2023-03-10T19:58:25.826Z,0.73
2023-03-10T20:00:57.683Z,0.75
2023-03-10T20:03:27.358Z,1.10
2023-03-10T20:05:55.001Z,0.80
2023-03-10T20:08:27.021Z,1.00
2023-03-10T20:11:01.915Z,1.13
2023-03-10T20:13:29.735Z,1.20
2023-03-10T20:15:57.346Z,0.90
2023-03-10T20:18:26.973Z,1.15
2023-03-10T20:20:53.726Z,1.10
2023-03-10T20:23:20.676Z,1.15
2023-03-10T20:25:49.828Z,0.93
2023-03-10T20:28:16.646Z,0.90
2023-03-10T20:30:43.500Z,0.93
2023-03-10T20:33:10.165Z,1.00
2023-03-10T20:35:38.470Z,1.10
2023-03-10T20:38:05.334Z,1.00
2023-03-10T20:40:32.139Z,1.10
2023-03-10T20:43:02.111Z,0.80
2023-03-10T20:45:28.789Z,1.08
2023-03-10T20:47:56.248Z,0.65
2023-03-10T20:50:25.804Z,1.00
2023-03-10T20:52:55.293Z,0.80
2023-03-10T20:55:25.385Z,0.70
2023-03-10T20:57:53.913Z,0.60
2023-03-10T21:00:25.013Z,0.70
2023-03-10T21:02:56.997Z,0.70
2023-03-10T21:05:27.857Z,0.80
2023-03-10T21:07:54.896Z,0.60
2023-03-10T21:10:26.647Z,0.60
2023-03-10T21:12:53.655Z,0.70
2023-03-10T21:15:20.507Z,0.52
2023-03-10T21:17:47.877Z,0.55
2023-03-10T21:20:23.079Z,0.50
2023-03-10T21:22:50.657Z,0.60
2023-03-10T21:25:21.114Z,0.55
2023-03-10T21:27:53.246Z,0.60
2023-03-10T21:30:21.312Z,1.10
2023-03-10T21:32:48.101Z,0.60
2023-03-10T21:35:14.917Z,0.38
2023-03-10T21:37:44.184Z,0.52
2023-03-10T21:40:14.873Z,0.40
2023-03-10T21:42:42.335Z,0.70
2023-03-10T21:45:11.678Z,0.40
2023-03-10T21:47:38.414Z,0.68
2023-03-10T21:50:05.502Z,0.50
2023-03-10T21:52:32.160Z,0.73
2023-03-10T21:55:01.246Z,0.70
2023-03-10T21:57:27.988Z,1.10
2023-03-10T21:59:54.690Z,0.85
2023-03-10T22:02:25.834Z,0.70
2023-03-10T22:04:54.956Z,0.80
2023-03-10T22:07:23.843Z,0.90
2023-03-10T22:09:50.746Z,0.70
2023-03-10T22:12:18.533Z,0.70
2023-03-10T22:14:45.368Z,0.80
2023-03-10T22:17:12.116Z,1.15
2023-03-10T22:19:38.945Z,0.93
2023-03-10T22:22:07.793Z,0.80
2023-03-10T22:24:34.482Z,0.95
2023-03-10T22:27:03.421Z,1.05
2023-03-10T22:29:30.092Z,0.88
2023-03-10T22:31:57.922Z,1.00
2023-03-10T22:34:26.993Z,1.08
2023-03-10T22:36:53.648Z,0.70
2023-03-10T22:39:21.382Z,0.98
2023-03-10T22:41:48.107Z,0.80
2023-03-10T22:44:14.896Z,1.83
2023-03-10T22:46:47.919Z,1.17
2023-03-10T22:49:17.904Z,0.98
2023-03-10T22:51:46.830Z,1.73
2023-03-10T22:54:13.670Z,0.90
2023-03-10T22:56:40.401Z,0.75
2023-03-10T22:59:08.125Z,0.80
2023-03-10T23:01:34.988Z,0.80
2023-03-10T23:04:01.737Z,0.70
2023-03-10T23:06:29.127Z,1.00
2023-03-10T23:08:56.676Z,0.80
2023-03-10T23:11:23.902Z,0.80
2023-03-10T23:13:50.728Z,0.68
2023-03-10T23:16:19.620Z,0.90
2023-03-10T23:18:47.721Z,0.65
2023-03-10T23:21:14.498Z,1.00
2023-03-10T23:23:43.991Z,0.63
2023-03-10T23:26:11.608Z,1.10
2023-03-10T23:28:38.463Z,0.70
2023-03-10T23:31:05.769Z,0.70
2023-03-10T23:33:32.755Z,0.80
2023-03-10T23:35:59.492Z,0.93
2023-03-10T23:38:26.720Z,0.80
2023-03-10T23:40:55.368Z,0.90
2023-03-10T23:43:22.514Z,0.63
2023-03-10T23:45:51.830Z,0.85
2023-03-10T23:48:19.765Z,0.95
2023-03-10T23:50:48.002Z,0.80
2023-03-10T23:53:17.123Z,0.70
2023-03-10T23:55:46.370Z,0.80
2023-03-10T23:58:15.471Z,0.90
